createdAt,value
2022-12-10T00:02:24.420Z,27.80
2022-12-10T00:04:51.616Z,29.77
2022-12-10T00:07:18.721Z,35.80
2022-12-10T00:09:45.832Z,31.30
2022-12-10T00:12:14.263Z,31.57
2022-12-10T00:14:41.363Z,32.10
2022-12-10T00:17:12.738Z,33.87
2022-12-10T00:19:40.250Z,31.53
2022-12-10T00:22:07.312Z,32.00
2022-12-10T00:24:34.447Z,33.23
2022-12-10T00:27:01.511Z,32.30
2022-12-10T00:29:29.984Z,30.83
2022-12-10T00:31:57.070Z,33.23
2022-12-10T00:34:24.171Z,35.40
2022-12-10T00:36:51.264Z,31.17
2022-12-10T00:39:19.318Z,31.97
2022-12-10T00:41:46.620Z,34.33
2022-12-10T00:44:14.157Z,33.90
2022-12-10T00:46:42.699Z,34.27
2022-12-10T00:49:09.853Z,32.93
2022-12-10T00:51:37.083Z,34.20
2022-12-10T00:54:04.301Z,32.03
2022-12-10T00:56:32.176Z,31.40
2022-12-10T00:58:59.604Z,31.57
2022-12-10T01:01:27.871Z,32.50
2022-12-10T01:03:57.050Z,32.43
2022-12-10T01:06:24.987Z,32.20
2022-12-10T01:08:53.436Z,32.73
2022-12-10T01:11:21.282Z,34.53
2022-12-10T01:13:49.276Z,33.90
2022-12-10T01:16:18.885Z,35.03
2022-12-10T01:18:46.122Z,38.27
2022-12-10T01:21:16.606Z,35.13
2022-12-10T01:23:44.571Z,34.67
2022-12-10T01:26:12.523Z,32.50
2022-12-10T01:28:40.477Z,31.33
2022-12-10T01:31:09.418Z,35.33
2022-12-10T01:33:38.030Z,37.40
2022-12-10T01:36:05.676Z,34.17
2022-12-10T01:38:34.272Z,31.60
2022-12-10T01:41:01.863Z,39.70
2022-12-10T01:43:29.283Z,33.97
2022-12-10T01:45:56.441Z,36.07
2022-12-10T01:48:23.636Z,32.83
2022-12-10T01:50:51.582Z,33.20
2022-12-10T01:53:18.676Z,30.37
2022-12-10T01:55:48.591Z,35.20
2022-12-10T01:58:16.729Z,35.37
2022-12-10T02:00:50.243Z,35.87
2022-12-10T02:03:20.564Z,36.77
2022-12-10T02:05:51.314Z,32.87
2022-12-10T02:08:21.075Z,35.77
2022-12-10T02:10:56.518Z,34.07
2022-12-10T02:13:28.064Z,38.80
2022-12-10T02:15:58.928Z,33.20
2022-12-10T02:18:28.690Z,33.93
2022-12-10T02:20:57.783Z,34.27
2022-12-10T02:23:26.747Z,35.37
2022-12-10T02:25:57.953Z,36.07
2022-12-10T02:28:32.198Z,36.03
2022-12-10T02:31:01.655Z,34.30
2022-12-10T02:33:32.771Z,34.27
2022-12-10T02:36:00.329Z,33.80
2022-12-10T02:38:28.766Z,32.43
2022-12-10T02:41:01.085Z,34.00
2022-12-10T02:43:28.733Z,34.67
2022-12-10T02:45:56.909Z,36.17
2022-12-10T02:48:25.641Z,31.87
2022-12-10T02:50:52.795Z,35.27
2022-12-10T02:53:19.920Z,33.33
2022-12-10T02:55:53.553Z,33.70
2022-12-10T02:58:25.457Z,31.60
2022-12-10T03:00:58.985Z,34.07
2022-12-10T03:03:33.076Z,32.00
2022-12-10T03:06:04.600Z,34.53
2022-12-10T03:08:35.123Z,36.70
2022-12-10T03:11:05.243Z,36.50
2022-12-10T03:13:34.719Z,36.50
2022-12-10T03:16:02.503Z,35.43
2022-12-10T03:18:32.975Z,35.73
2022-12-10T03:21:01.261Z,36.63
2022-12-10T03:23:29.666Z,36.00
2022-12-10T03:25:57.063Z,39.40
2022-12-10T03:28:24.901Z,38.67
2022-12-10T03:30:53.169Z,38.43
2022-12-10T03:33:20.517Z,35.30
2022-12-10T03:35:49.352Z,32.80
2022-12-10T03:38:16.663Z,35.57
2022-12-10T03:40:43.963Z,35.67
2022-12-10T03:43:13.608Z,35.10
2022-12-10T03:45:41.021Z,36.00
2022-12-10T03:48:08.201Z,34.03
2022-12-10T03:50:35.316Z,32.67
2022-12-10T03:53:03.728Z,37.47
2022-12-10T03:55:30.854Z,32.73
2022-12-10T03:57:57.946Z,33.63
2022-12-10T04:00:25.028Z,27.97
2022-12-10T04:02:52.140Z,30.60
2022-12-10T04:05:19.331Z,31.10
2022-12-10T04:07:46.453Z,30.20
2022-12-10T04:10:14.939Z,27.70
2022-12-10T04:12:42.048Z,30.47
2022-12-10T04:15:09.684Z,29.30
2022-12-10T04:17:36.853Z,27.00
2022-12-10T04:20:04.628Z,27.93
2022-12-10T04:22:31.986Z,32.70
2022-12-10T04:24:59.062Z,30.13
2022-12-10T04:27:28.822Z,28.23
2022-12-10T04:29:56.456Z,29.20
2022-12-10T04:32:24.569Z,31.73
2022-12-10T04:34:51.734Z,31.13
2022-12-10T04:37:19.308Z,31.63
2022-12-10T04:39:46.775Z,29.57
2022-12-10T04:42:14.160Z,28.93
2022-12-10T04:44:42.628Z,31.00
2022-12-10T04:47:10.523Z,29.87
2022-12-10T04:49:38.069Z,29.40
2022-12-10T04:52:05.811Z,27.80
2022-12-10T04:54:37.297Z,29.63
2022-12-10T04:57:06.382Z,31.97
2022-12-10T04:59:33.624Z,29.30
2022-12-10T05:02:02.095Z,29.83
2022-12-10T05:04:29.192Z,30.63
2022-12-10T05:06:56.323Z,27.87
2022-12-10T05:09:23.384Z,28.23
2022-12-10T05:11:50.524Z,28.63
2022-12-10T05:14:17.684Z,27.33
2022-12-10T05:16:44.797Z,26.43
2022-12-10T05:19:13.307Z,27.93
2022-12-10T05:21:40.374Z,26.90
2022-12-10T05:24:07.632Z,24.83
2022-12-10T05:26:34.726Z,23.10
2022-12-10T05:29:01.835Z,26.40
2022-12-10T05:31:30.642Z,25.60
2022-12-10T05:33:58.450Z,25.67
2022-12-10T05:36:27.937Z,26.00
2022-12-10T05:38:56.069Z,24.70
2022-12-10T05:41:27.259Z,26.50
2022-12-10T05:43:54.959Z,25.97
2022-12-10T05:46:23.203Z,26.60
2022-12-10T05:48:50.406Z,27.57
2022-12-10T05:51:18.364Z,25.80
2022-12-10T05:53:47.117Z,26.23
2022-12-10T05:56:15.421Z,25.80
2022-12-10T05:58:43.593Z,26.60
2022-12-10T06:01:11.901Z,28.50
2022-12-10T06:03:39.049Z,27.20
2022-12-10T06:06:06.886Z,25.37
2022-12-10T06:08:34.246Z,26.60
2022-12-10T06:11:03.483Z,23.93
2022-12-10T06:13:30.592Z,26.90
2022-12-10T06:15:57.720Z,27.03
2022-12-10T06:18:24.857Z,26.53
2022-12-10T06:20:51.978Z,29.80
2022-12-10T06:23:19.078Z,28.53
2022-12-10T06:25:46.180Z,27.63
2022-12-10T06:28:15.208Z,27.60
2022-12-10T06:30:42.307Z,27.50
2022-12-10T06:33:09.378Z,29.77
2022-12-10T06:35:36.481Z,31.03
2022-12-10T06:38:03.589Z,27.93
2022-12-10T06:40:30.726Z,27.87
2022-12-10T06:42:57.837Z,25.27
2022-12-10T06:45:26.264Z,29.33
2022-12-10T06:47:53.353Z,28.17
2022-12-10T06:50:20.433Z,28.47
2022-12-10T06:52:53.303Z,32.60
2022-12-10T06:55:21.902Z,32.10
2022-12-10T06:57:51.884Z,32.00
2022-12-10T07:00:22.068Z,36.47
2022-12-10T07:02:50.895Z,33.13
2022-12-10T07:05:19.071Z,35.87
2022-12-10T07:07:46.197Z,33.90
2022-12-10T07:10:14.455Z,35.60
2022-12-10T07:12:41.537Z,40.53
2022-12-10T07:15:09.335Z,37.30
2022-12-10T07:17:36.412Z,36.40
2022-12-10T07:20:05.200Z,38.43
2022-12-10T07:22:32.312Z,37.83
2022-12-10T07:24:59.432Z,34.43
2022-12-10T07:27:26.670Z,35.07
2022-12-10T07:29:53.782Z,35.20
2022-12-10T07:32:20.881Z,38.10
2022-12-10T07:34:47.982Z,35.10
2022-12-10T07:37:16.416Z,36.30
2022-12-10T07:39:43.499Z,37.10
2022-12-10T07:42:10.589Z,33.23
2022-12-10T07:44:39.102Z,35.50
2022-12-10T07:47:06.286Z,37.53
2022-12-10T07:49:33.415Z,38.37
2022-12-10T07:52:00.518Z,37.53
2022-12-10T07:54:28.957Z,38.87
2022-12-10T07:56:56.042Z,38.50
2022-12-10T07:59:23.133Z,35.37
2022-12-10T08:01:50.241Z,39.57
2022-12-10T08:04:17.395Z,38.50
2022-12-10T08:06:44.500Z,41.00
2022-12-10T08:09:12.069Z,39.30
2022-12-10T08:11:40.546Z,40.30
2022-12-10T08:14:07.673Z,39.83
2022-12-10T08:16:34.800Z,36.87
2022-12-10T08:19:02.213Z,40.33
2022-12-10T08:21:30.400Z,37.57
2022-12-10T08:23:57.652Z,41.07
2022-12-10T08:26:25.714Z,37.57
2022-12-10T08:28:56.622Z,37.30
2022-12-10T08:31:24.072Z,41.00
2022-12-10T08:33:51.246Z,36.37
2022-12-10T08:36:19.031Z,36.03
2022-12-10T08:38:46.764Z,36.43
2022-12-10T08:41:14.582Z,35.30
2022-12-10T08:43:41.829Z,37.00
2022-12-10T08:46:10.703Z,35.73
2022-12-10T08:48:38.563Z,34.90
2022-12-10T08:51:06.608Z,33.03
2022-12-10T08:53:33.717Z,35.60
2022-12-10T08:56:00.819Z,33.57
2022-12-10T08:58:27.958Z,31.53
2022-12-10T09:00:55.122Z,32.97
2022-12-10T09:03:23.600Z,34.10
2022-12-10T09:05:50.777Z,35.70
2022-12-10T09:08:17.969Z,32.93
2022-12-10T09:10:45.154Z,33.87
2022-12-10T09:13:12.248Z,34.87
2022-12-10T09:15:39.371Z,33.90
2022-12-10T09:18:06.466Z,31.80
2022-12-10T09:20:34.922Z,30.87
2022-12-10T09:23:01.999Z,33.17
2022-12-10T09:25:29.145Z,34.80
2022-12-10T09:27:56.244Z,33.47
2022-12-10T09:30:23.382Z,32.87
2022-12-10T09:32:50.509Z,31.30
2022-12-10T09:35:17.591Z,32.80
2022-12-10T09:37:46.019Z,34.13
2022-12-10T09:40:15.994Z,34.50
2022-12-10T09:42:49.984Z,33.37
2022-12-10T09:45:20.321Z,32.43
2022-12-10T09:47:51.678Z,32.10
2022-12-10T09:50:22.207Z,31.40
2022-12-10T09:52:50.768Z,34.60
2022-12-10T09:55:18.769Z,34.40
2022-12-10T09:57:47.706Z,30.70
2022-12-10T10:00:20.536Z,33.70
2022-12-10T10:02:47.782Z,30.70
2022-12-10T10:05:17.285Z,31.10
2022-12-10T10:07:46.709Z,28.33
2022-12-10T10:10:20.764Z,26.77
2022-12-10T10:12:48.183Z,26.63
2022-12-10T10:15:16.901Z,27.57
2022-12-10T10:17:44.924Z,28.97
2022-12-10T10:20:12.146Z,30.90
2022-12-10T10:22:39.273Z,29.50
2022-12-10T10:25:07.499Z,30.50
2022-12-10T10:27:35.937Z,30.40
2022-12-10T10:30:05.499Z,28.80
2022-12-10T10:32:46.049Z,32.27
2022-12-10T10:35:20.645Z,31.03
2022-12-10T10:37:47.724Z,29.10
2022-12-10T10:40:22.824Z,30.43
2022-12-10T10:42:53.895Z,30.53
2022-12-10T10:45:35.030Z,30.90
2022-12-10T10:48:06.659Z,28.90
2022-12-10T10:50:38.344Z,31.50
2022-12-10T10:53:20.649Z,29.23
2022-12-10T10:55:47.754Z,30.10
2022-12-10T10:58:18.651Z,31.07
2022-12-10T11:00:54.858Z,29.60
2022-12-10T11:03:22.226Z,27.60
2022-12-10T11:05:49.960Z,26.73
2022-12-10T11:08:18.518Z,26.67
2022-12-10T11:10:48.832Z,28.67
2022-12-10T11:13:24.265Z,30.30
2022-12-10T11:15:57.498Z,27.10
2022-12-10T11:18:26.726Z,29.80
2022-12-10T11:21:01.318Z,29.17
2022-12-10T11:23:29.085Z,30.40
2022-12-10T11:25:59.564Z,29.70
2022-12-10T11:28:35.055Z,28.20
2022-12-10T11:31:13.604Z,31.10
2022-12-10T11:33:44.192Z,28.27
2022-12-10T11:36:18.847Z,27.83
2022-12-10T11:38:48.146Z,28.57
2022-12-10T11:41:20.193Z,29.57
2022-12-10T11:43:57.103Z,31.57
2022-12-10T11:46:35.662Z,30.83
2022-12-10T11:49:10.722Z,29.60
2022-12-10T11:51:41.715Z,29.63
2022-12-10T11:54:16.386Z,29.97
2022-12-10T11:56:45.137Z,30.17
2022-12-10T11:59:18.272Z,30.57
2022-12-10T12:01:51.038Z,28.77
2022-12-10T12:04:24.435Z,27.83
2022-12-10T12:06:59.049Z,26.73
2022-12-10T12:09:31.439Z,29.20
2022-12-10T12:12:05.448Z,26.87
2022-12-10T12:14:36.344Z,25.77
2022-12-10T12:17:06.585Z,27.00
2022-12-10T12:19:37.365Z,26.47
2022-12-10T12:22:08.128Z,28.17
2022-12-10T12:24:37.314Z,25.30
2022-12-10T12:27:09.995Z,26.77
2022-12-10T12:29:41.457Z,26.07
2022-12-10T12:32:12.904Z,26.53
2022-12-10T12:34:46.306Z,27.50
2022-12-10T12:37:16.188Z,25.27
2022-12-10T12:39:45.692Z,24.70
2022-12-10T12:42:17.399Z,27.73
2022-12-10T12:44:50.301Z,25.97
2022-12-10T12:47:20.843Z,25.20
2022-12-10T12:49:49.249Z,24.07
2022-12-10T12:52:22.053Z,25.73
2022-12-10T12:54:50.110Z,27.57
2022-12-10T12:57:23.797Z,25.90
2022-12-10T12:59:56.580Z,29.37
2022-12-10T13:02:28.101Z,26.10
2022-12-10T13:04:55.365Z,27.17
2022-12-10T13:07:29.887Z,26.83
2022-12-10T13:10:11.867Z,28.73
2022-12-10T13:12:47.678Z,27.30
2022-12-10T13:15:22.986Z,25.57
2022-12-10T13:18:03.836Z,25.80
2022-12-10T13:20:32.413Z,27.87
2022-12-10T13:23:00.672Z,27.00
2022-12-10T13:25:39.650Z,26.20
2022-12-10T13:28:22.026Z,25.47
2022-12-10T13:31:04.025Z,26.50
2022-12-10T13:33:45.359Z,24.33
2022-12-10T13:36:12.643Z,27.83
2022-12-10T13:38:59.659Z,27.60
2022-12-10T13:41:26.804Z,27.60
2022-12-10T13:43:55.196Z,28.13
2022-12-10T13:46:23.560Z,24.03
2022-12-10T13:48:52.380Z,28.40
2022-12-10T13:51:37.235Z,24.60
2022-12-10T13:54:15.406Z,27.70
2022-12-10T13:56:49.759Z,27.97
2022-12-10T13:59:19.769Z,28.40
2022-12-10T14:01:50.828Z,28.80
2022-12-10T14:04:33.741Z,26.57
2022-12-10T14:07:00.932Z,26.93
2022-12-10T14:09:31.270Z,27.83
2022-12-10T14:11:59.573Z,26.60
2022-12-10T14:14:30.615Z,28.13
2022-12-10T14:17:00.153Z,27.00
2022-12-10T14:19:30.171Z,27.00
2022-12-10T14:21:58.988Z,27.73
2022-12-10T14:24:27.344Z,24.93
2022-12-10T14:26:57.799Z,24.87
2022-12-10T14:29:29.172Z,27.70
2022-12-10T14:31:57.096Z,26.10
2022-12-10T14:34:26.843Z,28.50
2022-12-10T14:36:55.424Z,27.57
2022-12-10T14:39:26.847Z,27.83
2022-12-10T14:41:56.402Z,28.40
2022-12-10T14:44:23.895Z,26.20
2022-12-10T14:46:51.652Z,27.43
2022-12-10T14:49:20.556Z,27.77
2022-12-10T14:51:47.663Z,28.43
2022-12-10T14:54:29.303Z,26.23
2022-12-10T14:56:57.178Z,28.27
2022-12-10T14:59:28.409Z,29.17
2022-12-10T15:01:56.268Z,28.00
2022-12-10T15:04:26.933Z,25.37
2022-12-10T15:06:58.412Z,28.13
2022-12-10T15:09:26.704Z,27.17
2022-12-10T15:11:56.134Z,29.60
2022-12-10T15:14:24.306Z,29.43
2022-12-10T15:16:51.453Z,29.87
2022-12-10T15:19:20.688Z,26.93
2022-12-10T15:21:48.576Z,24.83
2022-12-10T15:24:17.125Z,25.93
2022-12-10T15:26:45.403Z,24.30
2022-12-10T15:29:45.944Z,24.60
2022-12-10T15:32:15.057Z,24.43
2022-12-10T15:34:43.518Z,24.23
2022-12-10T15:37:17.263Z,24.90
2022-12-10T15:39:47.058Z,29.50
2022-12-10T15:42:28.416Z,25.37
2022-12-10T15:44:57.727Z,29.20
2022-12-10T15:47:26.920Z,27.63
2022-12-10T15:49:56.075Z,25.83
2022-12-10T15:52:24.138Z,26.77
2022-12-10T15:54:52.271Z,29.10
2022-12-10T15:57:20.372Z,28.40
2022-12-10T15:59:48.672Z,27.27
2022-12-10T16:02:25.706Z,27.40
2022-12-10T16:04:54.258Z,26.93
2022-12-10T16:07:21.367Z,26.30
2022-12-10T16:09:48.605Z,26.23
2022-12-10T16:12:16.483Z,27.77
2022-12-10T16:14:46.648Z,23.93
2022-12-10T16:17:13.742Z,27.40
2022-12-10T16:19:40.847Z,28.30
2022-12-10T16:22:09.249Z,26.87
2022-12-10T16:24:39.582Z,25.97
2022-12-10T16:27:13.327Z,27.43
2022-12-10T16:29:40.481Z,26.50
2022-12-10T16:32:07.565Z,29.33
2022-12-10T16:34:34.672Z,26.60
2022-12-10T16:37:01.751Z,28.43
2022-12-10T16:39:31.130Z,25.30
2022-12-10T16:41:58.350Z,26.10
2022-12-10T16:44:25.442Z,25.23
2022-12-10T16:46:52.761Z,26.30
2022-12-10T16:49:19.839Z,27.47
2022-12-10T16:51:46.988Z,29.23
2022-12-10T16:54:14.084Z,26.63
2022-12-10T16:56:42.536Z,29.30
2022-12-10T16:59:09.632Z,27.63
2022-12-10T17:01:36.863Z,27.93
2022-12-10T17:04:04.076Z,26.90
2022-12-10T17:06:31.500Z,27.13
2022-12-10T17:08:58.605Z,28.97
2022-12-10T17:11:27.090Z,27.50
2022-12-10T17:13:55.502Z,28.27
2022-12-10T17:16:23.369Z,25.23
2022-12-10T17:18:50.650Z,26.77
2022-12-10T17:21:17.764Z,27.10
2022-12-10T17:23:45.198Z,27.27
2022-12-10T17:26:17.083Z,27.60
2022-12-10T17:28:44.182Z,29.97
2022-12-10T17:31:12.625Z,27.57
2022-12-10T17:33:39.688Z,26.63
2022-12-10T17:36:10.083Z,25.50
2022-12-10T17:38:37.179Z,23.77
2022-12-10T17:41:04.596Z,22.97
2022-12-10T17:43:31.683Z,23.80
2022-12-10T17:45:59.178Z,23.80
2022-12-10T17:48:27.638Z,21.50
2022-12-10T17:50:54.746Z,23.07
2022-12-10T17:53:21.875Z,21.50
2022-12-10T17:55:51.494Z,20.77
2022-12-10T17:58:18.587Z,21.77
2022-12-10T18:00:45.672Z,22.40
2022-12-10T18:03:12.744Z,21.93
2022-12-10T18:05:41.269Z,26.47
2022-12-10T18:08:08.402Z,23.80
2022-12-10T18:10:35.603Z,23.57
2022-12-10T18:13:03.033Z,24.07
2022-12-10T18:15:31.085Z,26.60
2022-12-10T18:17:58.330Z,27.10
2022-12-10T18:20:26.193Z,27.30
2022-12-10T18:22:55.037Z,26.83
2022-12-10T18:25:23.169Z,28.97
2022-12-10T18:27:50.637Z,26.53
2022-12-10T18:30:18.614Z,25.07
2022-12-10T18:32:45.858Z,24.20
2022-12-10T18:35:13.079Z,24.30
2022-12-10T18:37:40.574Z,23.83
2022-12-10T18:40:10.220Z,21.80
2022-12-10T18:42:39.344Z,23.73
2022-12-10T18:45:10.105Z,23.47
2022-12-10T18:47:37.435Z,21.53
2022-12-10T18:50:04.898Z,23.70
2022-12-10T18:52:32.008Z,25.70
2022-12-10T18:54:59.092Z,24.57
2022-12-10T18:57:38.391Z,24.50
2022-12-10T19:00:13.572Z,21.03
2022-12-10T19:02:40.710Z,21.60
2022-12-10T19:05:08.454Z,20.33
2022-12-10T19:07:35.784Z,22.97
2022-12-10T19:10:02.883Z,24.20
2022-12-10T19:12:31.289Z,22.93
2022-12-10T19:14:58.372Z,21.83
2022-12-10T19:17:25.461Z,23.60
2022-12-10T19:19:52.581Z,23.40
2022-12-10T19:22:19.660Z,21.63
2022-12-10T19:24:46.757Z,23.17
2022-12-10T19:27:13.819Z,26.53
2022-12-10T19:29:42.298Z,24.63
2022-12-10T19:32:09.430Z,22.47
2022-12-10T19:34:36.540Z,24.17
2022-12-10T19:37:03.771Z,25.00
2022-12-10T19:39:30.949Z,25.43
2022-12-10T19:41:58.037Z,23.10
2022-12-10T19:44:25.141Z,23.33
2022-12-10T19:46:53.587Z,25.40
2022-12-10T19:49:20.937Z,21.93
2022-12-10T19:51:48.358Z,25.10
2022-12-10T19:54:15.646Z,22.70
2022-12-10T19:56:42.970Z,20.83
2022-12-10T19:59:15.161Z,21.30
2022-12-10T20:01:42.977Z,20.60
2022-12-10T20:04:11.576Z,21.57
2022-12-10T20:06:40.365Z,23.10
2022-12-10T20:09:11.193Z,19.53
2022-12-10T20:11:38.264Z,23.13
2022-12-10T20:14:05.371Z,23.10
2022-12-10T20:16:33.023Z,22.13
2022-12-10T20:19:00.131Z,21.70
2022-12-10T20:21:28.556Z,24.07
2022-12-10T20:24:01.168Z,22.73
2022-12-10T20:26:31.364Z,20.27
2022-12-10T20:28:58.476Z,22.80
2022-12-10T20:31:25.612Z,21.50
2022-12-10T20:33:52.746Z,23.30
2022-12-10T20:36:21.605Z,25.23
2022-12-10T20:38:50.315Z,23.87
2022-12-10T20:41:17.919Z,23.27
2022-12-10T20:43:45.334Z,21.67
2022-12-10T20:46:14.445Z,20.20
2022-12-10T20:48:41.612Z,21.20
2022-12-10T20:51:08.700Z,25.63
2022-12-10T20:53:38.978Z,25.73
2022-12-10T20:56:11.124Z,24.93
2022-12-10T20:58:38.234Z,26.20
2022-12-10T21:01:05.393Z,25.07
2022-12-10T21:03:32.616Z,25.50
2022-12-10T21:05:59.825Z,22.33
2022-12-10T21:08:27.021Z,23.63
2022-12-10T21:10:54.372Z,21.80
2022-12-10T21:13:25.009Z,22.97
2022-12-10T21:15:52.598Z,23.27
2022-12-10T21:18:20.163Z,24.23
2022-12-10T21:20:47.717Z,22.27
2022-12-10T21:23:16.617Z,23.10
2022-12-10T21:25:43.713Z,22.70
2022-12-10T21:28:10.977Z,22.53
2022-12-10T21:30:39.392Z,23.40
2022-12-10T21:33:06.745Z,23.10
2022-12-10T21:35:33.841Z,22.20
2022-12-10T21:38:01.112Z,24.97
2022-12-10T21:40:28.208Z,23.60
2022-12-10T21:42:55.338Z,26.97
2022-12-10T21:45:22.432Z,27.40
2022-12-10T21:47:53.839Z,28.03
2022-12-10T21:50:20.973Z,24.97
2022-12-10T21:52:48.103Z,23.67
2022-12-10T21:55:15.443Z,22.10
2022-12-10T21:57:42.526Z,23.67
2022-12-10T22:00:10.294Z,22.70
2022-12-10T22:02:40.380Z,25.17
2022-12-10T22:05:09.843Z,23.70
2022-12-10T22:07:37.284Z,22.43
2022-12-10T22:10:04.921Z,19.27
2022-12-10T22:12:32.008Z,20.67
2022-12-10T22:14:59.149Z,18.47
2022-12-10T22:17:26.580Z,19.87
2022-12-10T22:19:53.771Z,19.80
2022-12-10T22:22:22.197Z,18.60
2022-12-10T22:24:49.292Z,19.07
2022-12-10T22:27:16.382Z,19.83
2022-12-10T22:29:44.461Z,19.07
2022-12-10T22:32:11.573Z,19.63
2022-12-10T22:34:44.890Z,21.10
2022-12-10T22:37:12.714Z,20.90
2022-12-10T22:39:41.318Z,23.00
2022-12-10T22:42:08.433Z,24.00
2022-12-10T22:44:35.608Z,21.13
2022-12-10T22:47:02.736Z,21.10
2022-12-10T22:49:32.156Z,22.57
2022-12-10T22:52:02.848Z,21.10
2022-12-10T22:54:30.087Z,20.53
2022-12-10T22:56:58.522Z,25.10
2022-12-10T22:59:25.632Z,23.43
2022-12-10T23:01:52.799Z,23.33
2022-12-10T23:04:19.989Z,23.63
2022-12-10T23:06:47.071Z,26.13
2022-12-10T23:09:14.135Z,23.33
2022-12-10T23:11:41.232Z,23.47
2022-12-10T23:14:09.696Z,28.00
2022-12-10T23:16:36.814Z,26.23
2022-12-10T23:19:03.984Z,28.63
2022-12-10T23:21:31.096Z,27.17
2022-12-10T23:23:58.160Z,28.53
2022-12-10T23:26:25.263Z,27.40
2022-12-10T23:28:52.325Z,27.83
2022-12-10T23:31:20.852Z,30.40
2022-12-10T23:33:48.010Z,30.00
2022-12-10T23:36:15.103Z,32.07
2022-12-10T23:38:42.213Z,30.83
2022-12-10T23:41:10.174Z,32.23
2022-12-10T23:43:37.406Z,32.93
2022-12-10T23:46:05.391Z,31.60
2022-12-10T23:48:34.134Z,30.60
2022-12-10T23:51:01.594Z,33.97
2022-12-10T23:53:29.024Z,32.47
2022-12-10T23:55:56.174Z,36.77
2022-12-10T23:58:23.853Z,32.77
